Time;durP1;ratioP1;P1;durP2;ratioP2;P2;SDS_P1;SDS_P2;PMS_P1;PMS_P2;Temp;Humidity;BMP_temperature;BMP_pressure;BME280_temperature;BME280_humidity;BME280_pressure;Samples;Min_cycle;Max_cycle;Signal;HPM_P1;HPM_P2
2022/08/31 05:00:37;;;;;;;8.93;7.90;;;20.30;97.20;;;;;;1720963;28;20205;-73
2022/08/31 05:01:31;;;;;;;8.57;7.82;;;20.30;97.20;;;;;;1720290;28;20208;-73
2022/08/31 05:02:22;;;;;;;9.10;8.20;;;20.20;97.20;;;;;;1720716;28;20205;-73
2022/08/31 05:03:13;;;;;;;8.63;7.93;;;20.20;97.20;;;;;;1721113;28;20205;-73
2022/08/31 05:04:05;;;;;;;9.30;8.50;;;20.30;97.20;;;;;;1720992;28;20276;-73
2022/08/31 05:04:56;;;;;;;8.88;8.15;;;20.20;97.20;;;;;;1721167;28;20201;-73
2022/08/31 05:05:51;;;;;;;8.23;7.43;;;20.20;97.20;;;;;;1720931;28;20280;-73
2022/08/31 05:06:44;;;;;;;7.70;7.05;;;20.20;97.20;;;;;;1720626;28;20320;-73
2022/08/31 05:07:36;;;;;;;7.60;7.00;;;20.20;97.20;;;;;;1720650;28;20205;-73
2022/08/31 05:08:27;;;;;;;7.53;6.93;;;20.20;97.20;;;;;;1721064;28;20205;-72
2022/08/31 05:09:21;;;;;;;8.32;7.47;;;20.30;97.20;;;;;;1721114;28;20285;-72
2022/08/31 05:10:12;;;;;;;8.43;7.72;;;20.30;97.20;;;;;;1721191;28;20212;-73
2022/08/31 05:11:09;;;;;;;9.20;7.80;;;20.30;97.20;;;;;;1720907;28;20200;-73
2022/08/31 05:11:59;;;;;;;8.30;7.60;;;20.30;97.20;;;;;;1720698;28;20484;-72
2022/08/31 05:12:51;;;;;;;8.50;7.80;;;20.30;97.20;;;;;;1721209;28;20205;-73
2022/08/31 05:13:42;;;;;;;8.32;7.63;;;20.30;97.20;;;;;;1721128;28;20205;-72
2022/08/31 05:14:34;;;;;;;8.10;7.40;;;20.30;97.20;;;;;;1721167;28;20304;-73
2022/08/31 05:15:25;;;;;;;8.32;7.65;;;20.30;97.20;;;;;;1720778;28;20753;-77
2022/08/31 05:16:19;;;;;;;8.40;7.53;;;20.30;97.20;;;;;;1721000;28;20657;-75
2022/08/31 05:17:10;;;;;;;8.13;7.53;;;20.30;97.20;;;;;;1720463;28;20205;-73
2022/08/31 05:18:02;;;;;;;8.50;7.70;;;20.30;97.20;;;;;;1720942;28;20349;-72
2022/08/31 05:18:52;;;;;;;8.80;8.10;;;20.30;97.20;;;;;;1720985;28;20676;-72
2022/08/31 05:19:44;;;;;;;9.10;8.20;;;20.30;97.20;;;;;;1721198;28;20576;-72
2022/08/31 05:20:35;;;;;;;8.73;7.93;;;20.30;97.20;;;;;;1721026;28;20236;-72
2022/08/31 05:21:30;;;;;;;8.33;7.63;;;20.30;97.20;;;;;;1720509;28;20696;-73
2022/08/31 05:22:21;;;;;;;8.57;7.75;;;20.30;97.20;;;;;;1720903;28;20301;-73
2022/08/31 05:23:13;;;;;;;9.20;8.40;;;20.30;97.20;;;;;;1721264;28;20264;-73
2022/08/31 05:24:07;;;;;;;8.85;8.05;;;20.30;97.20;;;;;;1721044;28;20205;-72
2022/08/31 05:24:59;;;;;;;8.27;7.57;;;20.30;97.20;;;;;;1720999;28;20208;-72
2022/08/31 05:25:50;;;;;;;8.20;7.50;;;20.30;97.20;;;;;;1721123;28;20201;-73
2022/08/31 05:26:44;;;;;;;8.33;7.63;;;20.30;97.20;;;;;;1720826;28;20205;-72
2022/08/31 05:27:35;;;;;;;8.93;8.13;;;20.30;97.20;;;;;;1720247;28;20205;-73
2022/08/31 05:28:26;;;;;;;8.95;8.25;;;20.40;97.20;;;;;;1720894;28;20207;-73
2022/08/31 05:29:20;;;;;;;8.82;8.13;;;20.40;97.20;;;;;;1721037;28;20674;-74
2022/08/31 05:30:12;;;;;;;8.32;7.63;;;20.30;97.20;;;;;;1721000;28;20208;-75
2022/08/31 05:31:05;;;;;;;9.23;8.45;;;20.30;97.20;;;;;;1720817;28;20212;-74
2022/08/31 05:31:58;;;;;;;9.30;8.50;;;20.30;97.20;;;;;;1718520;28;20244;-73
2022/08/31 05:32:49;;;;;;;9.13;8.13;;;20.30;97.20;;;;;;1721170;28;20213;-73
2022/08/31 05:33:42;;;;;;;8.60;7.80;;;20.30;97.20;;;;;;1720724;28;20740;-75
2022/08/31 05:34:33;;;;;;;9.57;8.77;;;20.30;97.20;;;;;;1721052;28;20448;-75
2022/08/31 05:35:25;;;;;;;8.77;7.90;;;20.30;97.20;;;;;;1714253;28;20300;-74
2022/08/31 05:36:16;;;;;;;8.18;7.50;;;20.30;97.20;;;;;;1714287;28;20205;-75
2022/08/31 05:37:08;;;;;;;9.07;8.18;;;20.30;97.20;;;;;;1714084;28;20202;-74
2022/08/31 05:37:58;;;;;;;8.50;7.70;;;20.30;97.20;;;;;;1713868;28;20201;-74
2022/08/31 05:38:52;;;;;;;9.20;8.30;;;20.30;97.20;;;;;;1714284;28;20293;-74
2022/08/31 05:39:43;;;;;;;9.10;8.30;;;20.20;97.20;;;;;;1714146;28;20210;-74
2022/08/31 05:40:35;;;;;;;9.73;8.93;;;20.30;97.20;;;;;;1718254;28;20229;-74
2022/08/31 05:41:27;;;;;;;9.02;8.23;;;20.20;97.20;;;;;;1720262;28;20209;-74
2022/08/31 05:42:19;;;;;;;8.30;7.60;;;20.20;97.20;;;;;;1720749;28;20186;-74
2022/08/31 05:43:10;;;;;;;9.27;8.38;;;20.20;97.20;;;;;;1721042;28;20347;-74
2022/08/31 05:44:04;;;;;;;8.80;7.90;;;20.20;97.20;;;;;;1720847;28;20208;-74
2022/08/31 05:44:54;;;;;;;9.23;8.43;;;20.20;97.20;;;;;;1721039;28;20684;-74
2022/08/31 05:45:46;;;;;;;9.03;8.20;;;20.20;97.20;;;;;;1720887;28;20613;-74
2022/08/31 05:46:37;;;;;;;7.22;6.72;;;20.20;97.20;;;;;;1720641;28;20722;-74
2022/08/31 05:47:30;;;;;;;9.13;8.27;;;20.20;97.20;;;;;;1720473;28;20547;-74
2022/08/31 05:48:22;;;;;;;8.60;7.80;;;20.20;97.20;;;;;;1720862;28;20711;-74
2022/08/31 05:49:14;;;;;;;8.68;7.97;;;20.20;97.20;;;;;;1720868;28;20240;-74
2022/08/31 05:50:05;;;;;;;7.60;7.00;;;20.20;97.20;;;;;;1720881;28;20209;-74
2022/08/31 05:51:00;;;;;;;8.27;7.57;;;20.20;97.20;;;;;;1720520;28;20308;-74
2022/08/31 05:51:52;;;;;;;8.93;8.23;;;20.20;97.20;;;;;;1720345;28;20664;-74
2022/08/31 05:52:43;;;;;;;9.25;7.85;;;20.20;97.20;;;;;;1720827;28;20205;-74
2022/08/31 05:53:36;;;;;;;7.93;7.23;;;20.20;97.20;;;;;;1720907;28;20211;-74
2022/08/31 05:54:27;;;;;;;7.72;7.07;;;20.20;97.20;;;;;;1720808;28;20444;-74
2022/08/31 05:55:19;;;;;;;7.60;6.90;;;20.20;97.20;;;;;;1720838;28;20201;-74
2022/08/31 05:56:12;;;;;;;7.55;6.95;;;20.20;97.20;;;;;;1720710;28;20510;-74
2022/08/31 05:57:04;;;;;;;7.72;7.03;;;20.20;97.20;;;;;;1720576;28;20232;-74
2022/08/31 05:57:55;;;;;;;7.40;6.80;;;20.20;97.20;;;;;;1720453;28;20202;-74
2022/08/31 05:58:48;;;;;;;7.50;6.80;;;20.10;97.20;;;;;;1720710;28;20197;-74
2022/08/31 05:59:39;;;;;;;7.50;6.90;;;20.10;97.20;;;;;;1720814;28;20219;-74
2022/08/31 06:00:31;;;;;;;7.70;7.10;;;20.10;97.20;;;;;;1720729;28;20656;-74
2022/08/31 06:01:24;;;;;;;7.55;6.72;;;20.00;97.20;;;;;;1719915;28;20208;-74
2022/08/31 06:02:15;;;;;;;7.43;6.65;;;20.00;97.20;;;;;;1714641;28;20220;-74
2022/08/31 06:03:08;;;;;;;7.07;6.55;;;20.00;97.20;;;;;;1714193;28;20675;-73
2022/08/31 06:04:00;;;;;;;7.10;6.50;;;20.00;97.20;;;;;;1714184;28;20210;-72
2022/08/31 06:04:54;;;;;;;7.53;6.82;;;20.00;97.20;;;;;;1714154;28;20217;-75
2022/08/31 06:05:49;;;;;;;7.13;6.53;;;20.00;97.20;;;;;;1720229;28;20193;-75
2022/08/31 06:06:40;;;;;;;7.30;6.70;;;20.00;97.20;;;;;;1720516;28;20609;-75
2022/08/31 06:07:32;;;;;;;6.97;6.33;;;19.90;97.20;;;;;;1720369;28;20626;-72
2022/08/31 06:08:22;;;;;;;7.53;6.28;;;19.90;97.20;;;;;;1720593;28;20209;-72
2022/08/31 06:09:14;;;;;;;7.67;6.97;;;19.90;97.20;;;;;;1720769;28;20209;-72
2022/08/31 06:10:05;;;;;;;7.47;6.88;;;19.90;97.20;;;;;;1720848;28;20204;-72
2022/08/31 06:10:59;;;;;;;7.50;6.80;;;19.80;97.20;;;;;;1720050;28;20217;-72
2022/08/31 06:11:52;;;;;;;8.48;7.05;;;19.80;97.20;;;;;;1716508;28;20197;-72
2022/08/31 06:12:46;;;;;;;7.15;6.55;;;19.80;97.20;;;;;;1719586;28;20208;-72
2022/08/31 06:13:37;;;;;;;8.27;7.47;;;19.80;97.20;;;;;;1717315;28;20201;-72
2022/08/31 06:14:28;;;;;;;7.20;6.43;;;19.80;97.20;;;;;;1718843;28;20205;-73
2022/08/31 06:15:20;;;;;;;7.60;6.90;;;19.80;97.20;;;;;;1720066;28;20208;-72
2022/08/31 06:16:12;;;;;;;8.10;7.13;;;19.70;97.20;;;;;;1720379;28;20699;-72
2022/08/31 06:17:05;;;;;;;7.68;7.07;;;19.70;97.20;;;;;;1720489;28;20228;-73
2022/08/31 06:17:56;;;;;;;7.80;7.10;;;19.70;97.20;;;;;;1720199;28;20723;-72
2022/08/31 06:18:51;;;;;;;7.23;6.60;;;19.70;97.20;;;;;;1720560;28;20590;-72
2022/08/31 06:19:42;;;;;;;7.43;6.78;;;19.70;97.20;;;;;;1720698;28;20448;-72
2022/08/31 06:20:36;;;;;;;7.53;6.83;;;19.70;97.20;;;;;;1720768;28;20225;-72
2022/08/31 06:21:29;;;;;;;7.25;6.65;;;19.70;97.20;;;;;;1720836;28;20205;-72
2022/08/31 06:22:22;;;;;;;7.20;6.60;;;19.70;97.20;;;;;;1720778;28;20647;-72
2022/08/31 06:23:13;;;;;;;7.18;6.47;;;19.70;97.20;;;;;;1720706;28;20271;-72
2022/08/31 06:24:06;;;;;;;7.87;7.07;;;19.70;97.20;;;;;;1720742;28;20251;-72
2022/08/31 06:24:56;;;;;;;7.53;6.93;;;19.70;97.20;;;;;;1720675;28;20224;-72
2022/08/31 06:25:48;;;;;;;6.80;6.20;;;19.70;97.20;;;;;;1720467;28;20280;-72
2022/08/31 06:26:39;;;;;;;8.00;7.05;;;19.70;97.20;;;;;;1720456;28;20215;-72
2022/08/31 06:27:31;;;;;;;6.93;6.37;;;19.70;97.20;;;;;;1720278;28;20292;-72
2022/08/31 06:28:21;;;;;;;7.57;6.97;;;19.70;97.20;;;;;;1720569;28;20201;-72
2022/08/31 06:29:14;;;;;;;7.20;6.53;;;19.70;97.20;;;;;;1720769;28;20284;-72
2022/08/31 06:30:07;;;;;;;7.63;6.55;;;19.70;97.20;;;;;;1720605;28;20197;-72
2022/08/31 06:30:59;;;;;;;7.15;6.50;;;19.70;97.20;;;;;;1720696;28;20278;-72
2022/08/31 06:31:50;;;;;;;6.80;6.00;;;19.80;97.20;;;;;;1720688;28;20653;-72
2022/08/31 06:32:42;;;;;;;8.07;6.70;;;19.80;97.20;;;;;;1720449;28;20754;-72
2022/08/31 06:33:34;;;;;;;7.35;6.40;;;19.80;97.20;;;;;;1720390;28;20204;-72
2022/08/31 06:34:27;;;;;;;6.82;6.22;;;19.80;97.20;;;;;;1719951;28;20205;-72
2022/08/31 06:35:19;;;;;;;7.53;6.93;;;19.90;97.20;;;;;;1719757;28;20209;-72
2022/08/31 06:36:12;;;;;;;6.95;6.25;;;19.90;97.20;;;;;;1719916;28;20197;-72
2022/08/31 06:37:05;;;;;;;7.53;6.90;;;19.90;97.20;;;;;;1720315;28;20194;-72
2022/08/31 06:37:55;;;;;;;7.25;6.65;;;19.90;97.20;;;;;;1720151;28;20597;-72
2022/08/31 06:38:48;;;;;;;7.50;6.80;;;20.00;97.20;;;;;;1720207;28;20231;-72
2022/08/31 06:39:38;;;;;;;6.78;6.10;;;20.00;97.20;;;;;;1720205;28;20205;-72
2022/08/31 06:40:30;;;;;;;7.30;6.60;;;20.00;97.20;;;;;;1719971;28;20291;-73
2022/08/31 06:41:23;;;;;;;7.22;6.63;;;20.00;97.20;;;;;;1720284;28;20444;-72
2022/08/31 06:42:15;;;;;;;7.03;6.35;;;20.00;97.20;;;;;;1720631;28;20209;-73
2022/08/31 06:43:06;;;;;;;6.90;6.32;;;20.00;97.20;;;;;;1720737;28;20554;-73
2022/08/31 06:44:00;;;;;;;6.70;6.20;;;20.00;97.20;;;;;;1720681;28;20193;-73
2022/08/31 06:44:51;;;;;;;7.55;6.78;;;20.10;97.20;;;;;;1720759;28;20201;-73
2022/08/31 06:45:43;;;;;;;7.33;6.70;;;20.10;97.20;;;;;;1720396;28;20201;-73
2022/08/31 06:46:36;;;;;;;7.47;6.72;;;20.10;97.20;;;;;;1720643;28;20216;-73
2022/08/31 06:47:27;;;;;;;7.60;6.95;;;20.10;97.20;;;;;;1720041;28;20205;-73
2022/08/31 06:48:18;;;;;;;9.05;7.20;;;20.10;97.20;;;;;;1720516;28;20197;-72
2022/08/31 06:49:10;;;;;;;6.90;6.20;;;20.10;97.20;;;;;;1720595;28;20236;-73
2022/08/31 06:50:03;;;;;;;7.43;6.50;;;20.10;97.20;;;;;;1720561;28;20569;-73
2022/08/31 06:50:56;;;;;;;8.73;6.78;;;20.20;97.20;;;;;;1720634;28;20267;-73
2022/08/31 06:51:48;;;;;;;7.97;6.75;;;20.20;97.20;;;;;;1720564;28;20275;-73
2022/08/31 06:52:40;;;;;;;7.03;6.40;;;20.20;97.20;;;;;;1720436;28;20239;-75
2022/08/31 06:53:31;;;;;;;7.07;6.28;;;20.20;97.20;;;;;;1720623;28;20205;-75
2022/08/31 06:54:22;;;;;;;7.83;6.50;;;20.20;97.20;;;;;;1720613;28;20284;-75
2022/08/31 06:55:13;;;;;;;7.07;6.45;;;20.20;97.20;;;;;;1720318;28;20448;-76
2022/08/31 06:56:06;;;;;;;7.10;6.50;;;20.20;97.20;;;;;;1720473;28;20280;-75
2022/08/31 06:56:58;;;;;;;6.93;6.32;;;20.20;97.20;;;;;;1720402;28;20212;-73
2022/08/31 06:57:49;;;;;;;7.22;6.63;;;20.20;97.20;;;;;;1720098;28;20730;-73
2022/08/31 06:58:40;;;;;;;8.60;7.53;;;20.20;97.20;;;;;;1720399;28;20212;-73
2022/08/31 06:59:32;;;;;;;7.47;6.77;;;20.20;97.20;;;;;;1720650;28;20202;-73
2022/08/31 07:00:23;;;;;;;6.90;6.30;;;20.20;97.20;;;;;;1720454;28;20444;-74
2022/08/31 07:01:17;;;;;;;9.43;7.37;;;20.20;97.20;;;;;;1720625;28;20255;-73
2022/08/31 07:02:08;;;;;;;7.95;7.25;;;20.20;97.20;;;;;;1720484;28;20201;-73
2022/08/31 07:03:21;;;;;;;9.67;7.40;;;20.20;97.20;;;;;;1720505;28;20287;-73
2022/08/31 07:04:13;;;;;;;10.00;6.75;;;20.20;97.20;;;;;;1720546;28;20811;-74
2022/08/31 07:05:06;;;;;;;7.65;6.88;;;20.20;97.20;;;;;;1720569;28;20679;-73
2022/08/31 07:05:57;;;;;;;7.75;7.05;;;20.20;97.20;;;;;;1716743;28;20219;-73
2022/08/31 07:06:48;;;;;;;8.05;7.25;;;20.20;97.20;;;;;;1720046;28;20201;-73
2022/08/31 07:07:40;;;;;;;8.13;7.40;;;20.20;97.20;;;;;;1719792;28;20707;-73
2022/08/31 07:08:31;;;;;;;8.55;7.75;;;20.20;97.20;;;;;;1720305;28;20565;-73
2022/08/31 07:09:23;;;;;;;8.20;7.45;;;20.20;97.20;;;;;;1720425;28;20625;-73
2022/08/31 07:10:14;;;;;;;8.60;7.80;;;20.20;97.20;;;;;;1720498;28;20205;-73
2022/08/31 07:11:12;;;;;;;7.30;6.60;;;20.20;97.20;;;;;;1720454;28;20193;-73
2022/08/31 07:12:05;;;;;;;8.35;6.88;;;20.20;97.20;;;;;;1720102;28;20448;-73
2022/08/31 07:12:56;;;;;;;8.63;7.30;;;20.20;97.20;;;;;;1720420;28;20253;-73
2022/08/31 07:13:48;;;;;;;8.00;7.30;;;20.20;97.20;;;;;;1720522;28;20216;-73
2022/08/31 07:14:40;;;;;;;10.75;7.30;;;20.20;97.20;;;;;;1720414;28;20208;-73
2022/08/31 07:15:30;;;;;;;9.32;8.35;;;20.30;97.20;;;;;;1720201;28;20209;-73
2022/08/31 07:16:24;;;;;;;9.70;7.17;;;20.30;97.20;;;;;;1720409;28;20734;-73
2022/08/31 07:17:15;;;;;;;8.00;7.30;;;20.30;97.20;;;;;;1719772;28;20209;-73
2022/08/31 07:18:06;;;;;;;9.90;7.03;;;20.30;97.20;;;;;;1720455;28;20292;-73
2022/08/31 07:18:59;;;;;;;9.15;7.47;;;20.30;97.20;;;;;;1720267;28;20212;-73
2022/08/31 07:19:51;;;;;;;8.07;7.38;;;20.30;97.20;;;;;;1720565;28;20251;-73
2022/08/31 07:20:43;;;;;;;8.65;7.75;;;20.30;97.20;;;;;;1720273;28;20225;-73
2022/08/31 07:21:38;;;;;;;10.00;9.02;;;20.30;97.20;;;;;;1720515;28;20244;-73
2022/08/31 07:22:29;;;;;;;7.95;7.35;;;20.30;97.20;;;;;;1720502;28;20220;-73
2022/08/31 07:23:20;;;;;;;8.17;7.47;;;20.30;97.20;;;;;;1720395;28;20212;-73
2022/08/31 07:24:14;;;;;;;7.78;6.97;;;20.30;97.20;;;;;;1720551;28;20579;-73
2022/08/31 07:25:09;;;;;;;8.23;7.43;;;20.30;97.20;;;;;;1720581;28;20209;-73
2022/08/31 07:26:04;;;;;;;8.77;7.63;;;20.20;97.20;;;;;;1720044;28;20205;-73
2022/08/31 07:26:57;;;;;;;8.63;7.40;;;20.20;97.20;;;;;;1720195;28;20593;-73
2022/08/31 07:27:54;;;;;;;8.10;7.40;;;20.20;97.20;;;;;;1719953;28;20247;-73
2022/08/31 07:28:51;;;;;;;8.60;7.80;;;20.20;97.20;;;;;;1720375;28;20292;-73
2022/08/31 07:29:43;;;;;;;8.90;7.35;;;20.20;97.20;;;;;;1720348;28;20308;-73
2022/08/31 07:30:36;;;;;;;9.82;7.60;;;20.20;97.20;;;;;;1720156;28;20247;-73
2022/08/31 07:31:36;;;;;;;9.13;7.60;;;20.20;97.20;;;;;;1720477;28;20212;-73
2022/08/31 07:32:28;;;;;;;8.60;7.80;;;20.20;97.20;;;;;;1720336;28;20209;-73
2022/08/31 07:33:18;;;;;;;8.00;7.30;;;20.20;97.20;;;;;;1720491;28;20240;-73
2022/08/31 07:34:11;;;;;;;8.03;7.17;;;20.20;97.20;;;;;;1720515;28;20201;-73
2022/08/31 07:35:03;;;;;;;8.77;7.28;;;20.20;97.20;;;;;;1720404;28;20208;-73
2022/08/31 07:35:56;;;;;;;8.52;7.50;;;20.20;97.20;;;;;;1720258;28;20193;-73
2022/08/31 07:42:51;;;;;;;9.48;7.57;;;20.30;97.20;;;;;;1699896;29;20203;-73
2022/08/31 07:43:42;;;;;;;7.60;6.90;;;20.20;97.20;;;;;;1699653;29;20630;-73
2022/08/31 07:44:34;;;;;;;8.85;7.30;;;20.30;97.20;;;;;;1716374;28;20705;-73
2022/08/31 07:45:25;;;;;;;8.10;7.40;;;20.30;97.20;;;;;;1720094;28;20212;-73
2022/08/31 07:46:17;;;;;;;8.40;7.60;;;20.30;97.20;;;;;;1720194;28;20288;-74
2022/08/31 07:47:11;;;;;;;8.63;7.82;;;20.30;97.20;;;;;;1720288;28;20818;-73
2022/08/31 07:48:03;;;;;;;9.35;7.55;;;20.30;97.20;;;;;;1720380;28;20238;-73
2022/08/31 07:48:54;;;;;;;8.30;7.50;;;20.30;97.20;;;;;;1720312;28;20209;-73
2022/08/31 07:49:50;;;;;;;7.97;7.17;;;20.30;97.20;;;;;;1720398;28;20284;-73
2022/08/31 07:50:43;;;;;;;8.23;7.53;;;20.30;97.20;;;;;;1720345;28;20476;-73
2022/08/31 07:51:36;;;;;;;8.88;7.20;;;20.30;97.20;;;;;;1720430;28;20201;-73
2022/08/31 07:52:29;;;;;;;9.50;6.75;;;20.30;97.20;;;;;;1720306;28;20205;-73
2022/08/31 07:53:21;;;;;;;7.32;6.60;;;20.30;97.20;;;;;;1720406;28;20197;-72
2022/08/31 07:54:14;;;;;;;8.20;7.05;;;20.30;97.20;;;;;;1720426;28;20197;-73
2022/08/31 07:55:11;;;;;;;14.68;8.65;;;20.30;97.20;;;;;;1720407;28;20742;-73
2022/08/31 07:56:02;;;;;;;8.50;6.97;;;20.30;97.20;;;;;;1720151;28;20752;-73
2022/08/31 07:56:59;;;;;;;7.63;7.03;;;20.30;97.20;;;;;;1720263;28;20660;-73
2022/08/31 07:57:53;;;;;;;8.00;6.90;;;20.30;97.20;;;;;;1719881;28;20209;-73
2022/08/31 07:58:46;;;;;;;7.50;6.82;;;20.40;97.20;;;;;;1720181;28;20296;-73
2022/08/31 07:59:38;;;;;;;8.40;6.97;;;20.40;97.20;;;;;;1720331;28;20205;-73
2022/08/31 08:00:34;;;;;;;8.23;7.15;;;20.40;97.20;;;;;;1720316;28;20197;-73
2022/08/31 08:01:29;;;;;;;9.18;7.18;;;20.40;97.20;;;;;;1720365;28;20206;-73
2022/08/31 08:02:22;;;;;;;7.70;7.00;;;20.40;97.20;;;;;;1720283;28;20209;-73
2022/08/31 08:03:13;;;;;;;8.23;7.43;;;20.40;97.20;;;;;;1720394;28;20368;-73
2022/08/31 08:04:06;;;;;;;7.70;7.00;;;20.40;97.20;;;;;;1720438;28;20263;-73
2022/08/31 08:04:59;;;;;;;7.90;7.10;;;20.40;97.20;;;;;;1720304;28;20823;-73
2022/08/31 08:05:50;;;;;;;8.48;7.78;;;20.40;97.20;;;;;;1720014;28;20201;-74
2022/08/31 08:06:43;;;;;;;7.97;7.22;;;20.40;97.20;;;;;;1720063;28;20691;-73
2022/08/31 08:07:37;;;;;;;8.68;7.97;;;20.40;97.20;;;;;;1719790;28;20201;-73
2022/08/31 08:08:28;;;;;;;7.47;6.82;;;20.40;97.20;;;;;;1720217;28;20574;-73
2022/08/31 08:09:19;;;;;;;8.27;7.57;;;20.40;97.20;;;;;;1720328;28;20212;-73
2022/08/31 08:10:12;;;;;;;8.47;7.77;;;20.40;97.20;;;;;;1720337;28;20300;-73
2022/08/31 08:11:05;;;;;;;7.85;7.05;;;20.40;97.20;;;;;;1720334;28;20546;-73
2022/08/31 08:12:03;;;;;;;7.80;6.78;;;20.40;97.20;;;;;;1720403;28;20656;-73
2022/08/31 08:12:59;;;;;;;7.65;7.05;;;20.40;97.20;;;;;;1720367;28;20661;-73
2022/08/31 08:13:51;;;;;;;9.20;7.63;;;20.40;97.20;;;;;;1720407;28;20209;-73
2022/08/31 08:14:42;;;;;;;7.93;7.13;;;20.40;97.20;;;;;;1720275;28;20209;-74
2022/08/31 08:15:36;;;;;;;7.93;7.13;;;20.40;97.20;;;;;;1720041;28;20201;-73
2022/08/31 08:16:26;;;;;;;8.68;7.97;;;20.40;97.20;;;;;;1713645;28;20209;-73
2022/08/31 08:17:18;;;;;;;8.10;7.40;;;20.40;97.20;;;;;;1712891;28;20205;-73
2022/08/31 08:18:11;;;;;;;9.80;7.53;;;20.40;97.20;;;;;;1713745;28;20559;-73
2022/08/31 08:19:03;;;;;;;8.05;7.30;;;20.40;97.20;;;;;;1713577;28;20288;-73
2022/08/31 08:19:54;;;;;;;8.27;7.30;;;20.40;97.20;;;;;;1713704;28;20217;-73
2022/08/31 08:20:46;;;;;;;10.63;7.30;;;20.50;97.20;;;;;;1713478;28;20306;-73
2022/08/31 08:21:37;;;;;;;8.50;7.70;;;20.50;97.20;;;;;;1713636;28;20457;-73
2022/08/31 08:22:30;;;;;;;9.63;7.93;;;20.50;97.20;;;;;;1713706;28;20198;-73
2022/08/31 08:23:21;;;;;;;9.45;8.57;;;20.50;97.20;;;;;;1713515;28;20441;-73
2022/08/31 08:24:14;;;;;;;8.33;7.53;;;20.50;97.20;;;;;;1713953;28;20237;-73
2022/08/31 08:25:06;;;;;;;8.10;7.32;;;20.50;97.20;;;;;;1714858;28;20456;-73
2022/08/31 08:26:00;;;;;;;8.20;7.50;;;20.50;97.20;;;;;;1719123;28;20204;-73
2022/08/31 08:26:51;;;;;;;9.85;7.75;;;20.50;97.20;;;;;;1721352;28;20683;-73
2022/08/31 08:27:43;;;;;;;8.40;7.70;;;20.50;97.20;;;;;;1720891;28;20256;-73
2022/08/31 08:28:33;;;;;;;7.88;7.18;;;20.50;97.20;;;;;;1721422;28;20213;-74
2022/08/31 08:29:25;;;;;;;8.77;7.87;;;20.50;97.20;;;;;;1721429;28;20201;-72
2022/08/31 08:30:16;;;;;;;10.88;7.85;;;20.50;97.20;;;;;;1721418;28;20201;-73
2022/08/31 08:31:13;;;;;;;9.47;8.53;;;20.50;97.20;;;;;;1721499;28;20201;-73
2022/08/31 08:32:04;;;;;;;8.77;7.97;;;20.50;97.20;;;;;;1721418;28;20441;-73
2022/08/31 08:32:58;;;;;;;9.15;8.27;;;20.50;97.20;;;;;;1721291;28;20248;-73
2022/08/31 08:33:50;;;;;;;8.77;7.90;;;20.50;97.20;;;;;;1721543;28;20206;-73
2022/08/31 08:34:43;;;;;;;8.68;7.90;;;20.50;97.20;;;;;;1721497;28;20610;-73
2022/08/31 08:35:34;;;;;;;9.57;7.60;;;20.50;97.20;;;;;;1721010;28;20212;-73
2022/08/31 08:36:26;;;;;;;9.57;8.67;;;20.50;97.20;;;;;;1721046;28;20201;-73
2022/08/31 08:37:17;;;;;;;9.90;7.65;;;20.50;97.20;;;;;;1720609;28;20444;-73
2022/08/31 08:38:10;;;;;;;8.93;8.02;;;20.50;97.20;;;;;;1721447;28;20197;-73
2022/08/31 08:39:04;;;;;;;8.93;8.13;;;20.50;97.20;;;;;;1721288;28;20292;-73
2022/08/31 08:39:58;;;;;;;8.13;7.43;;;20.50;97.20;;;;;;1721536;28;20236;-73
2022/08/31 08:40:50;;;;;;;11.63;8.48;;;20.50;97.20;;;;;;1721085;28;20213;-73
2022/08/31 08:41:43;;;;;;;9.10;8.15;;;20.50;97.20;;;;;;1721394;28;20304;-73
2022/08/31 08:42:34;;;;;;;9.27;8.48;;;20.50;97.20;;;;;;1721459;28;20213;-73
2022/08/31 08:43:32;;;;;;;9.30;8.40;;;20.50;97.20;;;;;;1721427;28;20284;-73
2022/08/31 08:44:26;;;;;;;8.82;8.10;;;20.50;97.20;;;;;;1720971;28;20689;-73
2022/08/31 08:45:17;;;;;;;9.63;8.32;;;20.50;97.20;;;;;;1721051;28;20205;-73
2022/08/31 08:46:12;;;;;;;9.07;8.18;;;20.50;97.20;;;;;;1721421;28;20674;-73
2022/08/31 08:47:07;;;;;;;8.95;8.13;;;20.40;97.20;;;;;;1721145;28;20587;-73
2022/08/31 08:47:59;;;;;;;9.10;8.30;;;20.40;97.20;;;;;;1720907;28;20202;-73
2022/08/31 08:48:51;;;;;;;9.63;7.97;;;20.40;97.20;;;;;;1721264;28;20280;-73
2022/08/31 08:49:48;;;;;;;10.15;7.85;;;20.40;97.20;;;;;;1721356;28;20233;-73
2022/08/31 08:50:40;;;;;;;7.68;7.05;;;20.40;97.20;;;;;;1721013;28;20236;-73
2022/08/31 08:51:37;;;;;;;8.77;7.88;;;20.40;97.20;;;;;;1721373;28;20288;-73
2022/08/31 08:52:34;;;;;;;8.57;7.88;;;20.40;97.20;;;;;;1721394;28;20209;-73
2022/08/31 08:53:30;;;;;;;8.13;7.32;;;20.50;97.20;;;;;;1721268;28;20261;-73
2022/08/31 08:54:29;;;;;;;8.32;7.60;;;20.50;97.20;;;;;;1721342;28;20201;-73
2022/08/31 08:55:26;;;;;;;8.27;7.55;;;20.50;97.20;;;;;;1721302;28;20630;-73
2022/08/31 08:56:19;;;;;;;8.00;7.30;;;20.50;97.20;;;;;;1721397;28;20719;-73
2022/08/31 08:57:13;;;;;;;8.57;7.88;;;20.60;97.20;;;;;;1720631;28;20194;-73
2022/08/31 08:58:06;;;;;;;9.98;8.75;;;20.60;97.20;;;;;;1721289;28;20679;-73
2022/08/31 08:58:58;;;;;;;9.18;7.90;;;20.60;97.20;;;;;;1721222;28;20198;-73
2022/08/31 08:59:52;;;;;;;9.50;8.35;;;20.60;97.20;;;;;;1721321;28;20578;-73
2022/08/31 09:00:47;;;;;;;9.50;8.57;;;20.60;97.20;;;;;;1720875;28;20232;-73
2022/08/31 09:01:44;;;;;;;9.18;8.27;;;20.60;97.20;;;;;;1721310;28;20205;-73
2022/08/31 09:02:41;;;;;;;9.48;8.48;;;20.60;97.20;;;;;;1721334;28;20340;-73
2022/08/31 09:03:43;;;;;;;8.77;7.97;;;20.60;97.20;;;;;;1721352;28;20202;-73
2022/08/31 09:04:50;;;;;;;9.20;8.40;;;20.70;97.20;;;;;;1721335;28;20241;-73
2022/08/31 09:05:58;;;;;;;10.48;8.60;;;20.70;97.20;;;;;;1720637;28;20237;-73
2022/08/31 09:06:58;;;;;;;11.63;8.00;;;20.70;97.20;;;;;;1719619;28;20233;-73
2022/08/31 09:08:22;;;;;;;9.73;8.70;;;20.70;97.20;;;;;;1718956;28;20194;-73
2022/08/31 09:09:33;;;;;;;8.35;7.40;;;20.70;97.20;;;;;;1721165;28;20197;-73
2022/08/31 09:10:31;;;;;;;9.90;7.75;;;20.70;97.20;;;;;;1719879;28;20251;-73
2022/08/31 09:11:31;;;;;;;10.07;8.02;;;20.80;97.20;;;;;;1721100;28;20200;-73
2022/08/31 09:12:30;;;;;;;9.20;8.40;;;20.80;97.20;;;;;;1721054;28;20267;-73
2022/08/31 09:13:31;;;;;;;8.35;7.65;;;20.80;97.20;;;;;;1721047;28;20229;-73
2022/08/31 09:14:39;;;;;;;8.85;7.95;;;20.80;97.20;;;;;;1721083;28;20232;-73
2022/08/31 09:16:00;;;;;;;8.95;8.15;;;20.90;97.20;;;;;;1721233;28;20206;-73
2022/08/31 09:16:58;;;;;;;10.18;8.15;;;20.90;97.20;;;;;;1721009;28;20833;-73
2022/08/31 09:17:56;;;;;;;9.55;8.65;;;20.90;97.20;;;;;;1720205;28;20256;-73
2022/08/31 09:18:53;;;;;;;9.00;8.13;;;21.00;97.20;;;;;;1721096;28;20212;-73
2022/08/31 09:20:00;;;;;;;10.15;8.02;;;21.00;97.20;;;;;;1721009;28;20205;-73
2022/08/31 09:21:19;;;;;;;10.23;8.93;;;21.00;97.20;;;;;;1721220;28;20308;-73
2022/08/31 09:22:11;;;;;;;9.68;8.60;;;21.00;97.20;;;;;;1721196;28;20205;-73
2022/08/31 09:23:06;;;;;;;9.15;8.25;;;21.10;97.20;;;;;;1721060;28;20314;-73
2022/08/31 09:24:02;;;;;;;9.45;8.55;;;21.00;97.20;;;;;;1721144;28;20247;-73
2022/08/31 09:24:58;;;;;;;10.80;8.40;;;21.00;97.20;;;;;;1721140;28;20212;-73
2022/08/31 09:25:51;;;;;;;8.18;7.38;;;21.00;97.20;;;;;;1721203;28;20212;-73
2022/08/31 09:26:54;;;;;;;8.52;7.72;;;21.00;97.20;;;;;;1720862;28;20679;-73
2022/08/31 09:27:47;;;;;;;8.60;7.80;;;21.00;97.20;;;;;;1720301;28;20582;-73
2022/08/31 09:28:47;;;;;;;8.77;7.95;;;21.00;97.20;;;;;;1720912;28;20541;-73
2022/08/31 09:29:42;;;;;;;8.50;7.70;;;21.00;97.20;;;;;;1720928;28;20220;-73
2022/08/31 09:30:40;;;;;;;8.82;7.93;;;21.00;97.20;;;;;;1721043;28;20229;-75
2022/08/31 09:31:36;;;;;;;8.43;7.55;;;21.00;97.20;;;;;;1721132;28;20201;-74
2022/08/31 09:32:30;;;;;;;8.75;7.95;;;21.00;97.20;;;;;;1721091;28;20285;-73
2022/08/31 09:33:24;;;;;;;9.40;8.30;;;21.00;97.20;;;;;;1720915;28;20201;-73
2022/08/31 09:34:30;;;;;;;7.90;7.20;;;21.00;97.20;;;;;;1721011;28;20252;-73
2022/08/31 09:35:28;;;;;;;9.23;8.32;;;21.00;97.20;;;;;;1720638;28;20237;-73
2022/08/31 09:36:22;;;;;;;7.68;6.90;;;21.00;97.20;;;;;;1721014;28;20719;-75
2022/08/31 09:37:18;;;;;;;8.13;7.32;;;21.00;97.20;;;;;;1720130;28;20205;-76
2022/08/31 09:38:16;;;;;;;8.35;7.50;;;21.00;97.20;;;;;;1714499;28;20198;-75
2022/08/31 09:39:19;;;;;;;8.52;7.72;;;21.00;97.20;;;;;;1714266;28;20293;-75
2022/08/31 09:40:19;;;;;;;9.00;8.30;;;21.00;97.20;;;;;;1714376;28;20245;-76
2022/08/31 09:41:20;;;;;;;9.07;8.18;;;21.00;97.20;;;;;;1714434;28;20660;-75
2022/08/31 09:42:18;;;;;;;8.95;8.15;;;21.10;97.20;;;;;;1714478;28;20535;-75
2022/08/31 09:43:12;;;;;;;11.85;7.95;;;21.10;97.20;;;;;;1714385;28;20344;-73
2022/08/31 09:44:31;;;;;;;9.77;8.55;;;21.10;97.20;;;;;;1714335;28;20609;-73
2022/08/31 09:45:28;;;;;;;9.25;8.35;;;21.10;97.20;;;;;;1714311;28;20201;-73